createdAt,value
2023-12-24T00:00:26.608Z,76.92
2023-12-24T00:03:01.520Z,76.94
2023-12-24T00:05:35.438Z,77.02
2023-12-24T00:08:09.855Z,76.97
2023-12-24T00:10:43.763Z,76.93
2023-12-24T00:13:17.793Z,76.94
2023-12-24T00:15:51.698Z,76.93
2023-12-24T00:18:25.395Z,76.93
2023-12-24T00:20:59.541Z,76.93
2023-12-24T00:23:33.359Z,76.98
2023-12-24T00:26:07.183Z,77.02
2023-12-24T00:28:41.417Z,77.02
2023-12-24T00:31:15.335Z,77.01
2023-12-24T00:33:48.972Z,77.01
2023-12-24T00:36:23.487Z,77.03
2023-12-24T00:38:57.002Z,77.08
2023-12-24T00:41:31.739Z,77.05
2023-12-24T00:44:06.334Z,77.07
2023-12-24T00:46:40.304Z,77.08
2023-12-24T00:49:14.829Z,77.08
2023-12-24T00:54:31.694Z,77.23
2023-12-24T00:57:05.468Z,77.17
2023-12-24T00:59:40.311Z,77.15
2023-12-24T01:02:14.153Z,77.14
2023-12-24T01:04:47.944Z,77.19
2023-12-24T01:07:21.333Z,77.16
2023-12-24T01:09:54.890Z,77.02
2023-12-24T01:12:28.587Z,77.05
2023-12-24T01:15:02.257Z,77.08
2023-12-24T01:17:36.381Z,77.04
2023-12-24T01:20:17.743Z,76.97
2023-12-24T01:22:52.022Z,76.97
2023-12-24T01:25:25.777Z,77.03
2023-12-24T01:27:59.310Z,77.05
2023-12-24T01:30:32.807Z,77.09
2023-12-24T01:33:07.305Z,77.08
2023-12-24T01:35:43.110Z,77.13
2023-12-24T01:38:16.752Z,77.13
2023-12-24T01:40:51.301Z,77.15
2023-12-24T01:43:24.753Z,77.16
2023-12-24T01:45:58.639Z,77.17
2023-12-24T01:48:32.292Z,77.23
2023-12-24T01:51:06.471Z,77.22
2023-12-24T01:53:41.196Z,77.14
2023-12-24T01:56:18.573Z,77.11
2023-12-24T01:58:53.851Z,77.04
2023-12-24T02:01:28.846Z,77.01
2023-12-24T02:04:02.472Z,77.04
2023-12-24T02:06:36.613Z,76.96
2023-12-24T02:09:10.342Z,76.93
2023-12-24T02:11:43.961Z,76.89
2023-12-24T02:14:17.947Z,76.89
2023-12-24T02:16:53.314Z,76.94
2023-12-24T02:19:27.333Z,76.87
2023-12-24T02:22:00.695Z,76.87
2023-12-24T02:24:34.198Z,76.91
2023-12-24T02:27:13.555Z,76.93
2023-12-24T02:29:50.033Z,76.88
2023-12-24T02:32:26.870Z,76.90
2023-12-24T02:35:02.980Z,76.94
2023-12-24T02:37:36.699Z,76.99
2023-12-24T02:40:11.891Z,76.94
2023-12-24T02:42:46.042Z,76.96
2023-12-24T02:45:19.763Z,76.96
2023-12-24T02:47:53.529Z,76.91
2023-12-24T02:50:27.642Z,76.92
2023-12-24T02:53:01.272Z,76.89
2023-12-24T02:55:34.705Z,76.90
2023-12-24T02:58:08.582Z,76.89
2023-12-24T03:00:42.178Z,76.88
2023-12-24T03:03:16.153Z,76.88
2023-12-24T03:05:49.603Z,76.93
2023-12-24T03:08:23.311Z,76.91
2023-12-24T03:10:56.753Z,76.93
2023-12-24T03:13:30.513Z,76.93
2023-12-24T03:16:04.277Z,76.92
2023-12-24T03:18:38.066Z,76.99
2023-12-24T03:21:11.686Z,77.00
2023-12-24T03:23:45.307Z,77.04
2023-12-24T03:26:25.857Z,77.01
2023-12-24T03:29:00.966Z,77.04
2023-12-24T03:31:35.266Z,76.97
2023-12-24T03:34:08.875Z,77.03
2023-12-24T03:36:44.241Z,77.12
2023-12-24T03:39:18.799Z,77.17
2023-12-24T03:41:52.310Z,77.17
2023-12-24T03:44:26.223Z,77.22
2023-12-24T03:47:00.329Z,77.28
2023-12-24T03:49:33.813Z,77.24
2023-12-24T03:52:08.645Z,77.27
2023-12-24T03:54:42.456Z,77.28
2023-12-24T03:57:16.473Z,77.31
2023-12-24T03:59:49.981Z,77.30
2023-12-24T04:02:25.352Z,77.38
2023-12-24T04:04:59.160Z,77.45
2023-12-24T04:07:34.414Z,77.45
2023-12-24T04:10:09.565Z,77.43
2023-12-24T04:12:43.463Z,77.51
2023-12-24T04:15:17.792Z,77.47
2023-12-24T04:17:51.562Z,77.35
2023-12-24T04:20:25.173Z,77.40
2023-12-24T04:22:59.189Z,77.40
2023-12-24T04:25:33.084Z,77.29
2023-12-24T04:28:08.227Z,77.34
2023-12-24T04:30:43.438Z,77.39
2023-12-24T04:33:17.352Z,77.37
2023-12-24T04:35:52.232Z,77.39
2023-12-24T04:38:27.179Z,77.35
2023-12-24T04:41:00.904Z,77.34
2023-12-24T04:43:34.416Z,77.31
2023-12-24T04:46:08.820Z,77.38
2023-12-24T04:48:44.011Z,77.37
2023-12-24T04:51:17.760Z,77.33
2023-12-24T04:53:51.450Z,77.37
2023-12-24T04:56:26.038Z,77.37
2023-12-24T04:59:00.043Z,77.46
2023-12-24T05:01:34.309Z,77.41
2023-12-24T05:04:08.195Z,77.43
2023-12-24T05:06:41.897Z,77.33
2023-12-24T05:09:16.232Z,77.29
2023-12-24T05:11:49.941Z,77.22
2023-12-24T05:14:23.967Z,77.30
2023-12-24T05:16:57.872Z,77.43
2023-12-24T05:19:31.425Z,77.53
2023-12-24T05:22:05.039Z,77.55
2023-12-24T05:24:38.679Z,77.61
2023-12-24T05:27:12.562Z,77.67
2023-12-24T05:29:45.909Z,77.69
2023-12-24T05:32:19.388Z,77.70
2023-12-24T05:34:53.074Z,77.72
2023-12-24T05:37:26.683Z,77.76
2023-12-24T05:40:00.200Z,77.74
2023-12-24T05:42:35.228Z,77.80
2023-12-24T05:45:12.983Z,77.80
2023-12-24T05:47:46.757Z,77.79
2023-12-24T05:50:21.658Z,77.85
2023-12-24T05:52:56.407Z,77.98
2023-12-24T05:55:29.774Z,77.92
2023-12-24T05:58:03.332Z,77.90
2023-12-24T06:00:37.511Z,77.92
2023-12-24T06:03:11.038Z,77.86
2023-12-24T06:05:44.879Z,77.86
2023-12-24T06:08:18.678Z,77.85
2023-12-24T06:10:52.345Z,77.87
2023-12-24T06:13:26.020Z,77.87
2023-12-24T06:15:59.674Z,77.92
2023-12-24T06:18:33.533Z,77.96
2023-12-24T06:21:09.293Z,77.96
2023-12-24T06:23:42.903Z,77.96
2023-12-24T06:26:16.512Z,77.98
2023-12-24T06:28:50.100Z,78.05
2023-12-24T06:31:26.974Z,78.02
2023-12-24T06:34:00.543Z,77.89
2023-12-24T06:36:34.026Z,77.99
2023-12-24T06:39:08.121Z,77.99
2023-12-24T06:41:42.951Z,78.02
2023-12-24T06:44:16.544Z,77.97
2023-12-24T06:46:50.439Z,78.01
2023-12-24T06:49:24.367Z,78.04
2023-12-24T06:51:58.009Z,78.00
2023-12-24T06:54:31.487Z,78.02
2023-12-24T06:57:05.514Z,78.05
2023-12-24T06:59:39.679Z,78.09
2023-12-24T07:02:13.187Z,78.07
2023-12-24T07:04:46.945Z,78.20
2023-12-24T07:07:20.536Z,78.25
2023-12-24T07:09:54.247Z,78.24
2023-12-24T07:12:29.962Z,78.24
2023-12-24T07:15:04.777Z,78.26
2023-12-24T07:17:38.504Z,78.24
2023-12-24T07:20:14.616Z,78.32
2023-12-24T07:22:48.195Z,78.42
2023-12-24T07:25:22.036Z,78.44
2023-12-24T07:27:55.717Z,78.59
2023-12-24T07:30:29.555Z,78.69
2023-12-24T07:33:03.371Z,78.84
2023-12-24T07:35:37.183Z,78.86
2023-12-24T07:38:11.182Z,78.87
2023-12-24T07:40:44.736Z,78.93
2023-12-24T07:43:18.163Z,79.00
2023-12-24T07:45:51.763Z,79.08
2023-12-24T07:48:26.854Z,79.10
2023-12-24T07:51:00.268Z,79.11
2023-12-24T07:53:33.752Z,79.08
2023-12-24T07:56:09.161Z,79.20
2023-12-24T07:58:42.835Z,79.10
2023-12-24T08:01:16.265Z,79.15
2023-12-24T08:03:49.680Z,79.17
2023-12-24T08:06:28.452Z,79.10
2023-12-24T08:08:58.846Z,79.18
2023-12-24T08:11:32.968Z,79.14
2023-12-24T08:14:06.527Z,79.15
2023-12-24T08:16:40.546Z,79.19
2023-12-24T08:19:14.272Z,79.13
2023-12-24T08:21:48.064Z,79.12
2023-12-24T08:24:21.713Z,79.08
2023-12-24T08:26:55.991Z,78.84
2023-12-24T08:29:29.796Z,78.93
2023-12-24T08:32:03.696Z,78.97
2023-12-24T08:34:40.000Z,78.82
2023-12-24T08:37:13.386Z,78.72
2023-12-24T08:39:47.158Z,78.59
2023-12-24T08:42:20.595Z,78.63
2023-12-24T08:44:54.475Z,78.59
2023-12-24T08:47:28.436Z,78.47
2023-12-24T08:50:02.110Z,78.24
2023-12-24T08:52:36.970Z,78.07
2023-12-24T08:55:13.307Z,77.99
2023-12-24T08:57:47.177Z,77.93
2023-12-24T09:00:23.233Z,77.85
2023-12-24T09:02:58.043Z,77.79
2023-12-24T09:05:32.536Z,77.63
2023-12-24T09:08:07.036Z,77.51
2023-12-24T09:10:42.518Z,77.51
2023-12-24T09:13:16.543Z,77.37
2023-12-24T09:15:49.910Z,77.20
2023-12-24T09:18:23.591Z,76.87
2023-12-24T09:20:57.019Z,76.76
2023-12-24T09:23:30.856Z,76.84
2023-12-24T09:26:04.641Z,76.63
2023-12-24T09:28:38.664Z,76.32
2023-12-24T09:31:12.307Z,76.51
2023-12-24T09:33:46.853Z,76.26
2023-12-24T09:36:20.565Z,75.75
2023-12-24T09:38:54.325Z,75.64
2023-12-24T09:41:27.909Z,75.92
2023-12-24T09:44:02.231Z,75.98
2023-12-24T09:46:36.016Z,75.28
2023-12-24T09:49:09.744Z,75.17
2023-12-24T09:51:44.857Z,75.37
2023-12-24T09:54:18.198Z,75.35
2023-12-24T09:56:52.018Z,75.23
2023-12-24T09:59:25.880Z,74.97
2023-12-24T10:01:59.385Z,74.93
2023-12-24T10:04:33.164Z,74.96
2023-12-24T10:07:08.188Z,74.81
2023-12-24T10:09:49.620Z,74.51
2023-12-24T10:12:23.560Z,74.66
2023-12-24T10:15:00.410Z,74.69
2023-12-24T10:17:37.468Z,74.46
2023-12-24T10:20:13.009Z,74.28
2023-12-24T10:22:47.251Z,74.16
2023-12-24T10:25:22.190Z,73.98
2023-12-24T10:27:59.532Z,74.14
2023-12-24T10:30:33.095Z,74.18
2023-12-24T10:33:14.434Z,74.17
2023-12-24T10:35:50.790Z,73.88
2023-12-24T10:38:24.382Z,73.64
2023-12-24T10:40:58.046Z,73.53
2023-12-24T10:43:32.416Z,73.48
2023-12-24T10:46:06.365Z,73.43
2023-12-24T10:48:40.075Z,73.26
2023-12-24T10:51:13.901Z,73.17
2023-12-24T10:53:48.088Z,73.20
2023-12-24T10:56:25.257Z,73.35
2023-12-24T10:59:02.172Z,73.48
2023-12-24T11:01:36.235Z,73.45
2023-12-24T11:04:09.985Z,73.45
2023-12-24T11:06:49.757Z,73.52
2023-12-24T11:09:45.866Z,73.38
2023-12-24T11:12:34.953Z,73.37
2023-12-24T11:15:11.782Z,73.39
2023-12-24T11:17:54.789Z,73.41
2023-12-24T11:20:42.108Z,73.39
2023-12-24T11:23:17.576Z,73.39
2023-12-24T11:25:53.608Z,73.38
2023-12-24T11:28:39.892Z,73.38
2023-12-24T11:31:14.032Z,73.55
2023-12-24T11:33:51.585Z,73.57
2023-12-24T11:36:28.442Z,73.71
2023-12-24T11:39:02.350Z,73.53
2023-12-24T11:41:36.053Z,73.50
2023-12-24T11:44:09.991Z,73.43
2023-12-24T11:46:43.822Z,73.39
2023-12-24T11:49:19.049Z,73.40
2023-12-24T11:51:52.557Z,73.41
2023-12-24T11:54:26.203Z,73.50
2023-12-24T11:56:59.963Z,73.35
2023-12-24T11:59:33.557Z,73.37
2023-12-24T12:02:08.127Z,73.31
2023-12-24T12:04:41.725Z,73.47
2023-12-24T12:07:15.719Z,73.39
2023-12-24T12:09:49.346Z,73.45
2023-12-24T12:12:23.203Z,73.27
2023-12-24T12:14:56.758Z,72.99
2023-12-24T12:17:30.353Z,73.06
2023-12-24T12:20:04.592Z,73.19
2023-12-24T12:22:38.653Z,73.16
2023-12-24T12:25:12.936Z,72.84
2023-12-24T12:27:48.601Z,72.97
2023-12-24T12:30:23.438Z,72.76
2023-12-24T12:32:57.599Z,72.55
2023-12-24T12:35:31.987Z,72.71
2023-12-24T12:38:06.131Z,72.69
2023-12-24T12:40:44.327Z,72.60
2023-12-24T12:43:15.470Z,72.75
2023-12-24T12:45:52.195Z,72.60
2023-12-24T12:48:24.439Z,72.66
2023-12-24T12:50:58.984Z,72.81
2023-12-24T12:53:32.680Z,72.82
2023-12-24T12:56:08.970Z,72.76
2023-12-24T12:58:44.514Z,72.83
2023-12-24T13:01:18.061Z,73.01
2023-12-24T13:04:01.405Z,73.10
2023-12-24T13:06:35.533Z,73.05
2023-12-24T13:09:10.775Z,73.18
2023-12-24T13:11:44.827Z,73.26
2023-12-24T13:14:19.078Z,73.20
2023-12-24T13:16:53.389Z,73.18
2023-12-24T13:19:28.941Z,73.22
2023-12-24T13:22:02.453Z,73.19
2023-12-24T13:24:36.578Z,73.20
2023-12-24T13:27:10.107Z,73.18
2023-12-24T13:29:44.042Z,73.14
2023-12-24T13:32:17.628Z,73.18
2023-12-24T13:34:51.363Z,73.18
2023-12-24T13:37:24.875Z,73.17
2023-12-24T13:39:58.532Z,73.07
2023-12-24T13:42:33.655Z,73.17
2023-12-24T13:45:10.131Z,73.29
2023-12-24T13:47:44.132Z,73.38
2023-12-24T13:50:18.016Z,73.32
2023-12-24T13:52:54.328Z,73.39
2023-12-24T13:55:28.846Z,73.44
2023-12-24T13:58:02.592Z,73.55
2023-12-24T14:00:36.927Z,73.54
2023-12-24T14:03:10.380Z,73.70
2023-12-24T14:05:45.725Z,73.74
2023-12-24T14:08:20.185Z,73.84
2023-12-24T14:10:53.942Z,73.85
2023-12-24T14:13:27.918Z,73.89
2023-12-24T14:16:03.967Z,73.90
2023-12-24T14:18:37.741Z,73.93
2023-12-24T14:21:11.372Z,73.92
2023-12-24T14:23:45.095Z,74.07
2023-12-24T14:26:18.774Z,74.29
2023-12-24T14:28:52.854Z,74.30
2023-12-24T14:31:26.185Z,74.32
2023-12-24T14:33:59.795Z,74.32
2023-12-24T14:36:33.888Z,74.32
2023-12-24T14:39:08.368Z,74.32
2023-12-24T14:41:42.093Z,74.28
2023-12-24T14:44:15.711Z,74.29
2023-12-24T14:46:49.527Z,74.36
2023-12-24T14:49:23.342Z,74.23
2023-12-24T14:51:57.345Z,74.24
2023-12-24T14:54:30.736Z,74.26
2023-12-24T14:57:05.491Z,74.35
2023-12-24T14:59:39.360Z,74.37
2023-12-24T15:02:13.505Z,74.39
2023-12-24T15:04:47.238Z,74.37
2023-12-24T15:07:21.401Z,74.33
2023-12-24T15:09:55.032Z,74.39
2023-12-24T15:12:28.689Z,74.33
2023-12-24T15:15:02.176Z,74.34
2023-12-24T15:17:36.990Z,74.33
2023-12-24T15:20:13.143Z,74.34
2023-12-24T15:22:46.961Z,74.32
2023-12-24T15:25:21.052Z,74.37
2023-12-24T15:27:54.678Z,74.34
2023-12-24T15:30:29.004Z,74.34
2023-12-24T15:33:04.295Z,74.34
2023-12-24T15:35:38.496Z,74.33
2023-12-24T15:38:12.208Z,74.31
2023-12-24T15:40:46.131Z,74.35
2023-12-24T15:43:19.566Z,74.39
2023-12-24T15:45:53.192Z,74.37
2023-12-24T15:48:26.777Z,74.36
2023-12-24T15:51:00.334Z,74.36
2023-12-24T15:53:33.962Z,74.35
2023-12-24T15:56:09.877Z,74.32
2023-12-24T15:58:43.605Z,74.34
2023-12-24T16:01:17.702Z,74.40
2023-12-24T16:03:51.645Z,74.46
2023-12-24T16:06:25.314Z,74.48
2023-12-24T16:08:58.904Z,74.48
2023-12-24T16:11:32.906Z,74.46
2023-12-24T16:14:08.446Z,74.47
2023-12-24T16:16:42.027Z,74.46
2023-12-24T16:19:16.182Z,74.47
2023-12-24T16:21:49.825Z,74.48
2023-12-24T16:24:24.505Z,74.49
2023-12-24T16:26:58.192Z,74.44
2023-12-24T16:29:32.242Z,74.43
2023-12-24T16:32:07.061Z,74.42
2023-12-24T16:34:40.650Z,74.41
2023-12-24T16:37:14.661Z,74.38
2023-12-24T16:39:48.201Z,74.42
2023-12-24T16:42:21.925Z,74.50
2023-12-24T16:44:55.732Z,74.56
2023-12-24T16:47:29.592Z,74.58
2023-12-24T16:50:03.600Z,74.57
2023-12-24T16:52:37.040Z,74.54
2023-12-24T16:55:11.691Z,74.53
2023-12-24T16:57:45.641Z,74.56
2023-12-24T17:00:20.505Z,74.50
2023-12-24T17:02:54.267Z,74.50
2023-12-24T17:05:28.190Z,74.41
2023-12-24T17:08:01.895Z,74.44
2023-12-24T17:10:35.520Z,74.49
2023-12-24T17:13:09.320Z,74.65
2023-12-24T17:15:44.365Z,74.63
2023-12-24T17:18:18.051Z,74.65
2023-12-24T17:20:52.468Z,74.67
2023-12-24T17:23:26.447Z,74.64
2023-12-24T17:26:00.192Z,74.61
2023-12-24T17:28:33.592Z,74.55
2023-12-24T17:31:09.499Z,74.51
2023-12-24T17:33:44.910Z,74.51
2023-12-24T17:36:22.756Z,74.49
2023-12-24T17:38:54.763Z,74.59
2023-12-24T17:41:28.241Z,74.55
2023-12-24T17:44:01.809Z,74.52
2023-12-24T17:46:35.625Z,74.54
2023-12-24T17:49:09.154Z,74.62
2023-12-24T17:51:44.161Z,74.57
2023-12-24T17:54:17.922Z,74.55
2023-12-24T17:56:51.999Z,74.51
2023-12-24T17:59:25.607Z,74.46
2023-12-24T18:01:59.216Z,74.41
2023-12-24T18:04:32.849Z,74.35
2023-12-24T18:07:07.163Z,74.33
2023-12-24T18:09:41.137Z,74.33
2023-12-24T18:12:16.566Z,74.30
2023-12-24T18:14:50.344Z,74.37
2023-12-24T18:17:23.917Z,74.34
2023-12-24T18:19:57.644Z,74.31
2023-12-24T18:22:31.624Z,74.28
2023-12-24T18:25:05.351Z,74.33
2023-12-24T18:27:39.069Z,74.31
2023-12-24T18:30:14.578Z,74.34
2023-12-24T18:32:48.264Z,74.32
2023-12-24T18:35:22.370Z,74.33
2023-12-24T18:37:56.239Z,74.31
2023-12-24T18:40:29.823Z,74.30
2023-12-24T18:43:03.753Z,74.31
2023-12-24T18:45:37.141Z,74.40
2023-12-24T18:48:12.105Z,74.38
2023-12-24T18:50:45.993Z,74.48
2023-12-24T18:53:19.874Z,74.51
2023-12-24T18:55:53.517Z,74.51
2023-12-24T18:58:28.280Z,74.52
2023-12-24T19:01:01.923Z,74.54
2023-12-24T19:03:35.379Z,74.55
2023-12-24T19:06:09.691Z,74.46
2023-12-24T19:08:43.373Z,74.35
2023-12-24T19:11:17.544Z,74.28
2023-12-24T19:13:51.580Z,74.35
2023-12-24T19:16:25.207Z,74.43
2023-12-24T19:18:58.762Z,74.49
2023-12-24T19:21:32.795Z,74.56
2023-12-24T19:24:07.148Z,74.59
2023-12-24T19:26:41.876Z,74.51
2023-12-24T19:29:15.218Z,74.55
2023-12-24T19:31:49.253Z,74.54
2023-12-24T19:34:23.330Z,74.61
2023-12-24T19:36:58.887Z,74.70
2023-12-24T19:39:32.370Z,74.79
2023-12-24T19:42:06.454Z,74.90
2023-12-24T19:44:39.934Z,75.04
2023-12-24T19:47:13.482Z,75.07
2023-12-24T19:49:47.051Z,75.09
2023-12-24T19:52:32.736Z,75.12
2023-12-24T19:54:56.700Z,75.07
2023-12-24T19:57:30.276Z,75.14
2023-12-24T20:00:04.027Z,75.19
2023-12-24T20:02:40.645Z,75.27
2023-12-24T20:05:17.996Z,75.26
2023-12-24T20:07:51.502Z,75.23
2023-12-24T20:10:25.196Z,75.24
2023-12-24T20:12:59.375Z,75.15
2023-12-24T20:15:34.046Z,75.22
2023-12-24T20:18:08.662Z,75.31
2023-12-24T20:20:42.435Z,75.33
2023-12-24T20:23:16.026Z,75.28
2023-12-24T20:25:49.658Z,75.25
2023-12-24T20:28:23.467Z,75.35
2023-12-24T20:30:57.270Z,75.33
2023-12-24T20:33:31.100Z,75.31
2023-12-24T20:36:06.695Z,75.31
2023-12-24T20:38:40.605Z,75.37
2023-12-24T20:41:14.160Z,75.44
2023-12-24T20:43:47.781Z,75.39
2023-12-24T20:46:22.544Z,75.46
2023-12-24T20:48:56.180Z,75.38
2023-12-24T20:51:30.733Z,75.37
2023-12-24T20:54:04.313Z,75.37
2023-12-24T20:56:38.412Z,75.42
2023-12-24T20:59:12.231Z,75.46
2023-12-24T21:01:45.665Z,75.55
2023-12-24T21:04:19.110Z,75.43
2023-12-24T21:06:52.591Z,75.52
2023-12-24T21:09:26.194Z,75.61
2023-12-24T21:11:59.937Z,75.58
2023-12-24T21:14:33.638Z,75.51
2023-12-24T21:17:07.448Z,75.44
2023-12-24T21:19:42.681Z,75.47
2023-12-24T21:22:16.394Z,75.56
2023-12-24T21:24:50.033Z,75.56
2023-12-24T21:27:23.459Z,75.66
2023-12-24T21:29:57.021Z,75.62
2023-12-24T21:32:30.497Z,75.53
2023-12-24T21:35:04.219Z,75.48
2023-12-24T21:37:37.934Z,75.49
2023-12-24T21:40:13.055Z,75.62
2023-12-24T21:42:46.528Z,75.73
2023-12-24T21:45:20.181Z,75.78
2023-12-24T21:47:54.621Z,75.80
2023-12-24T21:50:28.578Z,75.77
2023-12-24T21:53:03.680Z,75.73
2023-12-24T21:55:37.482Z,75.80
2023-12-24T21:58:12.019Z,75.78
2023-12-24T22:00:51.648Z,75.69
2023-12-24T22:03:28.046Z,75.70
2023-12-24T22:05:55.774Z,75.74
2023-12-24T22:08:29.530Z,75.71
2023-12-24T22:11:03.243Z,75.66
2023-12-24T22:13:39.249Z,75.68
2023-12-24T22:16:16.262Z,75.77
2023-12-24T22:18:50.806Z,75.65
2023-12-24T22:21:24.871Z,75.51
2023-12-24T22:23:58.508Z,75.39
2023-12-24T22:26:32.583Z,75.39
2023-12-24T22:29:06.255Z,75.31
2023-12-24T22:31:39.774Z,75.41
2023-12-24T22:34:13.383Z,75.52
2023-12-24T22:36:47.029Z,75.43
2023-12-24T22:39:20.556Z,75.30
2023-12-24T22:41:54.128Z,75.29
2023-12-24T22:44:29.320Z,75.32
2023-12-24T22:47:03.463Z,75.31
2023-12-24T22:49:37.058Z,75.25
2023-12-24T22:52:10.496Z,75.17
2023-12-24T22:54:44.053Z,75.24
2023-12-24T22:57:17.608Z,75.22
2023-12-24T22:59:51.339Z,75.12
2023-12-24T23:02:25.015Z,75.15
2023-12-24T23:04:58.557Z,75.18
2023-12-24T23:07:33.736Z,75.30
2023-12-24T23:10:09.163Z,75.34
2023-12-24T23:12:42.665Z,75.51
2023-12-24T23:15:16.204Z,75.48
2023-12-24T23:17:50.854Z,75.39
2023-12-24T23:20:24.519Z,75.52
2023-12-24T23:22:58.177Z,75.54
2023-12-24T23:25:32.000Z,75.67
2023-12-24T23:28:06.532Z,75.67
2023-12-24T23:30:40.327Z,75.63
2023-12-24T23:33:13.809Z,75.63
2023-12-24T23:35:57.548Z,75.65
2023-12-24T23:38:22.832Z,75.63
2023-12-24T23:40:56.463Z,75.64
2023-12-24T23:43:29.951Z,75.70
2023-12-24T23:46:04.196Z,75.66
2023-12-24T23:48:38.519Z,75.68
2023-12-24T23:51:12.416Z,75.67
2023-12-24T23:53:47.711Z,75.69
2023-12-24T23:56:21.143Z,75.65
2023-12-24T23:58:54.915Z,75.70
